Nearby METAR Reports

 

KPAE - Everett, Washington, USA
Distance from station: NW 15mi, 25km
Updated: 12/18/2018 8:53pm
Clear
Clear
 Wind from S
Wind: S 16 mph , 26 km/h
Temperature: 45°F , 7°C
Wind Chill: 38°F , 3°C
Dew Point: 43°F , 6°C
Humidity: 93%
Barometer: 29.97 inHg , 1014.9 hPa
Clouds: Clear
Visibility: 10 miles , 16 km
2018/12/19 04:53 KPAE 190453Z 17014KT 10SM CLR 07/06 A2997 RMK AO2 SLP150 T00720056
KBFI - Seattle/Boeing, Washington, USA
Distance from station: SW 20mi, 31km
Updated: 12/18/2018 8:53pm
Partly cloudy
Partly cloudy
 Wind from SSW
Wind: SSW 10 mph , 17 km/h
Temperature: 48°F , 9°C
Wind Chill: 44°F , 7°C
Dew Point: 43°F , 6°C
Humidity: 82%
Barometer: 30.01 inHg , 1016.3 hPa
Clouds: Partly cloudy
Visibility: 10 miles , 16 km
Cloud details: Partly cloudy 2200 ft
2018/12/19 04:53 KBFI 190453Z 21009KT 190V250 10SM SCT022 09/06 A3001 RMK AO2 SLP160 T00940061
KSEA - Seattle/Metro, Washington, USA
Distance from station: SSW 25mi, 41km
Updated: 12/18/2018 8:53pm
Mostly cloudy
Mostly cloudy
 Wind from SSW
Wind: SSW 14 mph , 22 km/h, Gust: 25 mph , 41 km/h
Temperature: 48°F , 9°C
Wind Chill: 42°F , 6°C
Dew Point: 43°F , 6°C
Humidity: 82%
Barometer: 30.00 inHg , 1015.9 hPa
Clouds: Mostly cloudy
Visibility: 10 miles , 16 km
Cloud details: Mostly cloudy 1900 ft
2018/12/19 04:53 KSEA 190453Z 21012G22KT 10SM BKN019 09/06 A3000 RMK AO2 SLP168 T00940061
 
KAWO - Arlington Muni, Washington, USA
Distance from station: NNW 28mi, 46km
Updated: 12/18/2018 8:56pm
Overcast
Overcast
 Wind from S
Wind: S 12 mph , 19 km/h
Temperature: 46°F , 8°C
Wind Chill: 40°F , 4°C
Dew Point: 43°F , 6°C
Humidity: 87%
Barometer: 29.98 inHg , 1015.2 hPa
Clouds: Overcast
Visibility: 10 miles , 16 km
Cloud details: Overcast 1800 ft
2018/12/19 04:56 KAWO 190456Z AUTO 17010KT 10SM OVC018 08/06 A2998 RMK AO2 SLP158 T00830061
KPWT - Bremerton Ntnl, Washington, USA
Distance from station: WSW 38mi, 61km
Updated: 12/18/2018 8:56pm
Clear
Clear
 Wind from SW
Wind: SW 14 mph , 22 km/h
Temperature: 45°F , 7°C
Wind Chill: 39°F , 4°C
Dew Point: 43°F , 6°C
Humidity: 93%
Barometer: 29.98 inHg , 1015.2 hPa
Clouds: Clear
Visibility: 10 miles , 16 km
2018/12/19 04:56 KPWT 190456Z AUTO 22012KT 10SM CLR 07/06 A2998 RMK AO2 SLP172 T00670061
KTIW - Tacoma, Washington, USA
Distance from station: SW 43mi, 69km
Updated: 12/18/2018 8:53pm
Clear
Clear
 Wind from S
Wind: S 14 mph , 22 km/h
Temperature: 46°F , 8°C
Wind Chill: 40°F , 4°C
Dew Point: 43°F , 6°C
Humidity: 87%
Barometer: 30.01 inHg , 1016.3 hPa
Clouds: Clear
Visibility: 10 miles , 16 km
2018/12/19 04:53 KTIW 190453Z AUTO 19012KT 10SM CLR 08/06 A3001 RMK AO2 SLP163 T00830061 $
 
KPLU - Puyallup/Thun, Washington, USA
Distance from station: SSW 47mi, 76km
Updated: 12/18/2018 8:55pm
Mostly cloudy
Mostly cloudy
 Wind from SSW
Wind: SSW 7 mph , 11 km/h
Temperature: 46°F , 8°C
Wind Chill: 42°F , 6°C
Dew Point: 45°F , 7°C
Humidity: 93%
Barometer: 30.04 inHg , 1017.3 hPa
Clouds: Mostly cloudy
Visibility: 10 miles , 16 km
Cloud details: Few Clouds 3000 ft
Mostly cloudy 3600 ft
Mostly cloudy 4700 ft
2018/12/19 04:55 KPLU 190455Z AUTO 20006KT 10SM FEW030 BKN036 BKN047 08/07 A3004 RMK AO2
KSMP - Stampede Pass, Washington, USA
Distance from station: SE 47mi, 76km
Updated: 12/18/2018 8:35pm
Light snow, Mist, Overcast
Light snow, Mist, Overcast
 Wind from varies
Wind: varies 7 mph , 11 km/h, Gust: 25 mph , 41 km/h
Temperature: 34°F , 1°C
Wind Chill: 28°F , -2°C
Dew Point: 30°F , -1°C
Humidity: 87%
Barometer: 29.91 inHg , 1012.9 hPa
Summary: Light snow, Mist
Clouds: Overcast
Visibility: 3/4 mile , 1.2 km
Cloud details: Mostly cloudy 400 ft
Overcast 1000 ft
2018/12/19 04:35 KSMP 190435Z AUTO VRB06G22KT 3/4SM -SN BR BKN004 OVC010 01/M01 A2991 RMK AO2 PK WND 26028/0410 RAE0357B01E05UPB05E11B21E24SNB24 P0014 I1000 T00061006 $
KNUW - Whidbey Is. Nas, Washington, USA
Distance from station: NW 49mi, 79km
Updated: 12/18/2018 8:56pm
Mostly cloudy
Mostly cloudy
 Wind from E
Wind: E 8 mph , 13 km/h
Temperature: 45°F , 7°C
Wind Chill: 41°F , 5°C
Dew Point: 43°F , 6°C
Humidity: 93%
Barometer: 29.99 inHg , 1015.6 hPa
Clouds: Mostly cloudy
Visibility: 10 miles , 16 km
Cloud details: Partly cloudy 3500 ft
Partly cloudy 4500 ft
Mostly cloudy 10000 ft
2018/12/19 04:56 KNUW 190456Z 10007KT 10SM SCT035 SCT045 BKN100 07/06 A2999 RMK AO2 SLP155 T00670056 $
 
KBVS - Burlington/Mt V, Washington, USA
Distance from station: NNW 51mi, 83km
Updated: 12/18/2018 8:55pm
Overcast
Overcast
 Wind from ESE
Wind: ESE 3 mph , 6 km/h
Temperature: 43°F , 6°C
Dew Point: 41°F , 5°C
Humidity: 93%
Barometer: 29.96 inHg , 1014.6 hPa
Clouds: Overcast
Visibility: 10 miles , 16 km
Cloud details: Few Clouds 4100 ft
Mostly cloudy 5000 ft
Overcast 6000 ft
2018/12/19 04:55 KBVS 190455Z AUTO 11003KT 10SM FEW041 BKN050 OVC060 06/05 A2996 RMK A01
KSHN - Shelton, Washington, USA
Distance from station: SW 63mi, 101km
Updated: 12/18/2018 8:53pm
Few Clouds
Few Clouds
 Wind from SW
Wind: SW 20 mph , 31 km/h, Gust: 26 mph , 43 km/h
Temperature: 48°F , 9°C
Wind Chill: 41°F , 5°C
Dew Point: 45°F , 7°C
Humidity: 87%
Barometer: 29.98 inHg , 1015.2 hPa
Clouds: Few Clouds
Visibility: 10 miles , 16 km
Cloud details: Few Clouds 4700 ft
2018/12/19 04:53 KSHN 190453Z AUTO 22017G23KT 10SM FEW047 09/07 A2998 RMK AO2 PK WND 22027/0436 RAB07E37 SLP154 P0000 T00940067
KOLM - Olympia, Washington, USA
Distance from station: SW 68mi, 110km
Updated: 12/18/2018 8:54pm
Mostly cloudy
Mostly cloudy
 Wind from S
Wind: S 10 mph , 17 km/h
Temperature: 46°F , 8°C
Wind Chill: 41°F , 5°C
Dew Point: 43°F , 6°C
Humidity: 87%
Barometer: 30.03 inHg , 1016.9 hPa
Clouds: Mostly cloudy
Visibility: 10 miles , 16 km
Cloud details: Few Clouds 2100 ft
Mostly cloudy 4200 ft
Mostly cloudy 6000 ft
2018/12/19 04:54 KOLM 190454Z AUTO 19009KT 10SM FEW021 BKN042 BKN060 08/06 A3003 RMK AO2 RAB09E45 SLP171 P0003 T00780061
 
KCLM - Port Angeles, Washington, USA
Distance from station: WNW 72mi, 115km
Updated: 12/18/2018 8:53pm
Clear
Clear
 Wind from WSW
Wind: WSW 9 mph , 15 km/h
Temperature: 45°F , 7°C
Wind Chill: 40°F , 4°C
Dew Point: 39°F , 4°C
Humidity: 81%
Barometer: 29.93 inHg , 1013.5 hPa
Clouds: Clear
Visibility: 10 miles , 16 km
2018/12/19 04:53 KCLM 190453Z AUTO 25008KT 10SM CLR 07/04 A2993 RMK AO2 SLP138 T00670044
CWYJ - Victoria Univ, British Columbia, Canada
Distance from station: NW 75mi, 121km
Updated: 12/18/2018 9:00pm

 Wind from SSW
Wind: SSW 2 mph , 4 km/h
Temperature: 45°F , 7°C
Dew Point: 43°F , 6°C
Humidity: 93%
2018/12/19 05:00 CWYJ 190500Z AUTO 21002KT 07/06 RMK AO1 3039 SLP133 T00690056 50046
KBLI - Bellingham, Washington, USA
Distance from station: NNW 75mi, 121km
Updated: 12/18/2018 8:53pm
Few Clouds
Few Clouds
 Wind from S
Wind: S 7 mph , 11 km/h
Temperature: 46°F , 8°C
Wind Chill: 42°F , 6°C
Dew Point: 39°F , 4°C
Humidity: 76%
Barometer: 29.92 inHg , 1013.2 hPa
Clouds: Few Clouds
Visibility: 10 miles , 16 km
Cloud details: Few Clouds 10000 ft
2018/12/19 04:53 KBLI 190453Z 17006KT 10SM FEW100 08/04 A2992 RMK AO2 SLP139 T00830044